METAR Data
IDs: Format: Raw Decoded Include TAF

Data at: 2348 UTC 29 May 2020

METAR for:KVTI (Vinton/Veterans Mem, IA, US)
Text:KVTI 292335Z AUTO 32006KT 10SM CLR 22/10 A3012 RMK AO2 T02160096
Temperature: 21.6°C ( 71°F)
Dewpoint: 9.6°C ( 49°F) [RH = 46%]
Pressure (altimeter):30.12 inches Hg (1020.1 mb)
Winds:from the NW (320 degrees) at 7 MPH (6 knots; 3.1 m/s)
Visibility:10 or more sm (16+ km)
Ceiling:at least 12,000 feet AGL
Clouds:sky clear below 12,000 feet AGL
QC Flag:automated observation with no human augmentation